Bonum — CRA5490 — position and weather

sailwx.info

Track history (hours):
 
Tides and Currents Weather Stations Pressure Air Temp Water Temp Dewpoint Dewpoint Depression Visibility Wind Speed Wind Dir Waves Ship Positions

Bonum

Last reported at 2016-Jun-23 00:14 UTC. Time now 2016-Jun-29 02:05 UTC.
Position N 41°22' E 007°27'.

Length 38 m; draft 3.2 m.

Type: Ship. MMSI: 255910770.

Date/timePositionNaut miles runAvg speedWind from/ knotsBaromVisibWave heightAir tempDewpointWater temp
2016-Jun-23 00:14N 41°22' E 007°27'17010.6
2016-Jun-22 08:15N 39°49' E 004°20'4110.8
2016-Jun-22 04:31N 39°26' E 003°36'1210.5
2016-Jun-22 03:23N 39°19' E 003°24'910.4
2016-Jun-22 02:33N 39°14' E 003°15'1110.5
2016-Jun-22 01:33N 39°08' E 003°04'1010.2
2016-Jun-22 00:33N 39°05' E 002°52'1010.3
2016-Jun-21 23:33N 39°04' E 002°39'1010.2
2016-Jun-21 22:33N 39°03' E 002°25'1010.4
2016-Jun-21 21:33N 39°02' E 002°12'1110.6
2016-Jun-21 20:33N 39°01' E 001°59'1110.7
2016-Jun-21 19:33N 38°58' E 001°45'1110.8
2016-Jun-21 18:33N 38°55' E 001°32'3 0.3
2016-Jun-21 08:29N 38°55' E 001°28'6 0.6
2016-Jun-20 22:21N 38°49' E 001°25'10510.5
2016-Jun-20 12:19N 37°42' W 000°19'810.8
2016-Jun-20 11:33N 37°36' W 000°26'1310.9
2016-Jun-20 10:20N 37°28' W 000°39'810.2
2016-Jun-20 09:33N 37°23' W 000°48'1110.2
2016-Jun-20 08:28N 37°18' W 000°59'25 8.3
2016-Jun-20 05:28N 36°57' W 001°17'2010.1
2016-Jun-20 03:30N 36°45' W 001°36'4110.3
2016-Jun-19 23:32N 36°21' W 002°18'1010.8
2016-Jun-19 22:34N 36°21' W 002°31'1110.9
2016-Jun-19 21:33N 36°22' W 002°45'127 2.5
2016-Jun-17 19:13N 36°09' W 005°22'0 0.0
2016-Jun-17 18:28N 36°09' W 005°22'0 0.0
2016-Jun-17 17:25N 36°09' W 005°22'0 0.0
2016-Jun-17 16:32N 36°09' W 005°22'0 0.0
2016-Jun-17 15:16N 36°09' W 005°22'0 0.0
2016-Jun-17 14:32N 36°09' W 005°22'0 0.0
2016-Jun-17 13:34N 36°09' W 005°22'0 0.0
2016-Jun-17 12:21N 36°09' W 005°22'0 0.0
2016-Jun-17 10:26N 36°09' W 005°22'0 0.0
2016-Jun-17 05:30N 36°09' W 005°22'0 0.0
2016-Jun-17 04:33N 36°09' W 005°22'0 0.0
2016-Jun-17 03:32N 36°09' W 005°22'0 0.0
2016-Jun-17 02:34N 36°09' W 005°22'0 0.0
2016-Jun-17 01:33N 36°09' W 005°22'0 0.0
2016-Jun-17 00:33N 36°09' W 005°22'0 0.0
2016-Jun-16 23:33N 36°09' W 005°22'0 0.0
2016-Jun-16 22:33N 36°09' W 005°22'0 0.0
2016-Jun-16 21:30N 36°09' W 005°22'0 0.0
2016-Jun-16 20:33N 36°09' W 005°22'0 0.0
2016-Jun-16 03:23N 36°09' W 005°22'0 0.0
2016-Jun-16 02:26N 36°09' W 005°22'0 0.0
2016-Jun-16 01:29N 36°09' W 005°22'0 0.0
2016-Jun-16 00:26N 36°09' W 005°22'  
Track history (hours):
 
Tides and Currents Weather Stations Pressure Air Temp Water Temp Dewpoint Dewpoint Depression Visibility Wind Speed Wind Dir Waves Ship Positions

Bonum

Last reported at 2016-Jun-23 00:14 UTC. Time now 2016-Jun-29 02:05 UTC.
Position N 41°22' E 007°27'.

Length 38 m; draft 3.2 m.

Type: Ship. MMSI: 255910770.

Date/timePositionNaut miles runAvg speedWind from/ knotsBaromVisibWave heightAir tempDewpointWater temp
2016-Jun-23 00:14N 41°22' E 007°27'17010.6
2016-Jun-22 08:15N 39°49' E 004°20'4110.8
2016-Jun-22 04:31N 39°26' E 003°36'1210.5
2016-Jun-22 03:23N 39°19' E 003°24'910.4
2016-Jun-22 02:33N 39°14' E 003°15'1110.5
2016-Jun-22 01:33N 39°08' E 003°04'1010.2
2016-Jun-22 00:33N 39°05' E 002°52'1010.3
2016-Jun-21 23:33N 39°04' E 002°39'1010.2
2016-Jun-21 22:33N 39°03' E 002°25'1010.4
2016-Jun-21 21:33N 39°02' E 002°12'1110.6
2016-Jun-21 20:33N 39°01' E 001°59'1110.7
2016-Jun-21 19:33N 38°58' E 001°45'1110.8
2016-Jun-21 18:33N 38°55' E 001°32'3 0.3
2016-Jun-21 08:29N 38°55' E 001°28'6 0.6
2016-Jun-20 22:21N 38°49' E 001°25'10510.5
2016-Jun-20 12:19N 37°42' W 000°19'810.8
2016-Jun-20 11:33N 37°36' W 000°26'1310.9
2016-Jun-20 10:20N 37°28' W 000°39'810.2
2016-Jun-20 09:33N 37°23' W 000°48'1110.2
2016-Jun-20 08:28N 37°18' W 000°59'25 8.3
2016-Jun-20 05:28N 36°57' W 001°17'2010.1
2016-Jun-20 03:30N 36°45' W 001°36'4110.3
2016-Jun-19 23:32N 36°21' W 002°18'1010.8
2016-Jun-19 22:34N 36°21' W 002°31'1110.9
2016-Jun-19 21:33N 36°22' W 002°45'127 2.5
2016-Jun-17 19:13N 36°09' W 005°22'0 0.0
2016-Jun-17 18:28N 36°09' W 005°22'0 0.0
2016-Jun-17 17:25N 36°09' W 005°22'0 0.0
2016-Jun-17 16:32N 36°09' W 005°22'0 0.0
2016-Jun-17 15:16N 36°09' W 005°22'0 0.0
2016-Jun-17 14:32N 36°09' W 005°22'0 0.0
2016-Jun-17 13:34N 36°09' W 005°22'0 0.0
2016-Jun-17 12:21N 36°09' W 005°22'0 0.0
2016-Jun-17 10:26N 36°09' W 005°22'0 0.0
2016-Jun-17 05:30N 36°09' W 005°22'0 0.0
2016-Jun-17 04:33N 36°09' W 005°22'0 0.0
2016-Jun-17 03:32N 36°09' W 005°22'0 0.0
2016-Jun-17 02:34N 36°09' W 005°22'0 0.0
2016-Jun-17 01:33N 36°09' W 005°22'0 0.0
2016-Jun-17 00:33N 36°09' W 005°22'0 0.0
2016-Jun-16 23:33N 36°09' W 005°22'0 0.0
2016-Jun-16 22:33N 36°09' W 005°22'0 0.0
2016-Jun-16 21:30N 36°09' W 005°22'0 0.0
2016-Jun-16 20:33N 36°09' W 005°22'0 0.0
2016-Jun-16 03:23N 36°09' W 005°22'0 0.0
2016-Jun-16 02:26N 36°09' W 005°22'0 0.0
2016-Jun-16 01:29N 36°09' W 005°22'0 0.0
2016-Jun-16 00:26N 36°09' W 005°22'  

Dump ship's entire track history